Terminal Aerodrome Forecast
Issued by NWS

Home | Current Version | Previous Version | Text Only | Print | Product List | Glossary On
Versions: 1 2 3 4 5 6 7 8 9 10 11 12 13 14 15 16 17 18 19 20 21 22 23 24 25 26
000
FTUS43 KAPX 151741 AAC
TAFMBL
TAF AMD
KMBL 151741Z 1518/1618 29012G21KT 6SM -SHSN BKN025
     FM160000 28013KT P6SM VCSH BKN030
     FM160600 30009KT P6SM VCSH BKN030
     FM160700 31008KT P6SM BKN050
     FM161200 04005KT P6SM BKN050
     FM161700 10007KT P6SM BKN045=

USA.gov is the U.S. government's official web portal to all federal, state and local government web resources and services.